Time;durP1;ratioP1;P1;durP2;ratioP2;P2;SDS_P1;SDS_P2;PMS_P1;PMS_P2;Temp;Humidity;BMP_temperature;BMP_pressure;BME280_temperature;BME280_humidity;BME280_pressure;Samples;Min_cycle;Max_cycle;Signal;HPM_P1;HPM_P2
2022/12/09 00:01:58;;;;;;;40.67;17.58;;;-1.50;99.90;;;;;;4972078;28;20057;-87
2022/12/09 00:04:24;;;;;;;41.00;17.65;;;-1.50;99.90;;;;;;4956188;28;20045;-86
2022/12/09 00:06:50;;;;;;;44.50;17.45;;;-1.40;99.90;;;;;;4976256;28;20493;-87
2022/12/09 00:09:16;;;;;;;41.92;16.50;;;-1.20;99.90;;;;;;4953483;28;20045;-87
2022/12/09 00:11:44;;;;;;;36.92;16.75;;;-1.30;99.90;;;;;;4974204;28;20064;-87
2022/12/09 00:14:13;;;;;;;39.00;16.65;;;-1.40;99.90;;;;;;4955517;28;20242;-86
2022/12/09 00:16:39;;;;;;;41.13;16.50;;;-1.40;99.90;;;;;;4954845;28;20077;-87
2022/12/09 00:19:08;;;;;;;44.67;17.83;;;-1.40;99.90;;;;;;4972526;28;20299;-87
2022/12/09 00:21:35;;;;;;;37.03;15.48;;;-1.40;99.90;;;;;;4958952;28;20460;-87
2022/12/09 00:24:03;;;;;;;44.63;17.52;;;-1.50;99.90;;;;;;4982673;28;20410;-86
2022/12/09 00:26:30;;;;;;;42.15;16.17;;;-1.50;99.90;;;;;;4991783;28;20048;-87
2022/12/09 00:28:56;;;;;;;40.67;16.13;;;-1.50;99.90;;;;;;4967881;28;20038;-87
2022/12/09 00:31:25;;;;;;;43.60;17.15;;;-1.50;99.90;;;;;;4969154;28;20898;-86
2022/12/09 00:33:54;;;;;;;42.08;16.60;;;-1.40;99.90;;;;;;4975645;28;20524;-86
2022/12/09 00:36:21;;;;;;;48.13;17.55;;;-1.50;99.90;;;;;;4967100;28;20093;-86
2022/12/09 00:38:47;;;;;;;56.50;20.85;;;-1.50;99.90;;;;;;4968336;28;20362;-87
2022/12/09 00:41:14;;;;;;;51.40;20.83;;;-1.50;99.90;;;;;;4967509;28;20044;-87
2022/12/09 00:43:41;;;;;;;49.30;19.08;;;-1.60;99.90;;;;;;4968161;28;20120;-86
2022/12/09 00:46:06;;;;;;;52.83;19.60;;;-1.50;99.90;;;;;;4982903;28;20575;-87
2022/12/09 00:48:33;;;;;;;49.72;19.17;;;-1.60;99.90;;;;;;4970684;28;20050;-87
2022/12/09 00:51:01;;;;;;;44.60;16.98;;;-1.70;99.90;;;;;;4973846;28;20486;-87
2022/12/09 00:53:27;;;;;;;40.92;15.98;;;-1.70;99.90;;;;;;4967445;28;20182;-86
2022/12/09 00:55:53;;;;;;;44.35;17.25;;;-1.60;99.90;;;;;;4951562;28;20070;-86
2022/12/09 00:58:18;;;;;;;38.88;16.45;;;-1.60;99.90;;;;;;4951402;28;20047;-87
2022/12/09 01:00:44;;;;;;;38.33;15.35;;;-1.60;99.90;;;;;;4967933;28;20074;-86
2022/12/09 01:03:15;;;;;;;43.33;15.95;;;-1.70;99.90;;;;;;4952722;28;20046;-87
2022/12/09 01:05:41;;;;;;;40.22;15.73;;;-1.70;99.90;;;;;;4968233;28;20054;-87
2022/12/09 01:08:07;;;;;;;40.95;16.02;;;-1.60;99.90;;;;;;4968472;28;20042;-86
2022/12/09 01:10:37;;;;;;;43.20;17.25;;;-1.60;99.90;;;;;;4970174;28;20153;-87
2022/12/09 01:13:03;;;;;;;41.55;15.55;;;-1.60;99.90;;;;;;4970053;28;20564;-87
2022/12/09 01:15:29;;;;;;;48.47;17.02;;;-1.60;99.90;;;;;;4967939;28;20046;-87
2022/12/09 01:17:55;;;;;;;42.95;16.08;;;-1.50;99.90;;;;;;4970573;28;20746;-86
2022/12/09 01:20:21;;;;;;;45.28;16.23;;;-1.50;99.90;;;;;;4958896;28;20101;-87
2022/12/09 01:22:47;;;;;;;41.17;16.77;;;-1.40;99.90;;;;;;4951462;28;20042;-86
2022/12/09 01:25:16;;;;;;;47.00;16.10;;;-1.40;99.90;;;;;;4960992;28;20272;-86
2022/12/09 01:27:41;;;;;;;43.15;16.10;;;-1.20;99.90;;;;;;4956505;28;20047;-86
2022/12/09 01:30:10;;;;;;;45.58;16.63;;;-1.20;99.90;;;;;;4962046;28;20180;-86
2022/12/09 01:32:38;;;;;;;45.70;15.98;;;-1.10;99.90;;;;;;4974443;28;20550;-87
2022/12/09 01:35:05;;;;;;;48.50;16.33;;;-1.00;99.90;;;;;;4960027;28;20049;-87
2022/12/09 01:37:31;;;;;;;48.35;16.95;;;-1.00;99.90;;;;;;4972415;28;20144;-86
2022/12/09 01:39:57;;;;;;;46.60;16.55;;;-1.00;99.90;;;;;;4955835;28;20288;-87
2022/12/09 01:42:28;;;;;;;42.33;15.45;;;-0.90;99.90;;;;;;4974686;28;20041;-87
2022/12/09 01:45:19;;;;;;;48.97;15.65;;;-0.90;99.90;;;;;;4984104;28;20493;-87
2022/12/09 01:47:47;;;;;;;44.80;16.13;;;-0.80;99.90;;;;;;4955952;28;20541;-87
2022/12/09 01:50:16;;;;;;;53.05;16.77;;;-0.70;99.90;;;;;;4987887;28;20439;-87
2022/12/09 01:52:43;;;;;;;53.97;16.35;;;-0.70;99.90;;;;;;4986233;28;20046;-87
2022/12/09 01:55:09;;;;;;;56.78;16.83;;;-0.70;99.90;;;;;;4973002;28;20108;-87
2022/12/09 01:57:35;;;;;;;48.47;15.73;;;-0.70;99.90;;;;;;4967866;28;20061;-87
2022/12/09 02:00:05;;;;;;;53.28;16.20;;;-0.80;99.90;;;;;;4987392;28;20405;-87
2022/12/09 02:02:31;;;;;;;46.05;15.57;;;-0.70;99.90;;;;;;4974072;28;20053;-87
2022/12/09 02:04:57;;;;;;;50.25;15.25;;;-0.60;99.90;;;;;;4974898;28;20465;-87
2022/12/09 02:07:23;;;;;;;48.42;15.43;;;-0.60;99.90;;;;;;4975480;28;20129;-87
2022/12/09 02:09:51;;;;;;;52.30;15.23;;;-0.80;99.90;;;;;;4957440;28;20627;-87
2022/12/09 02:13:00;;;;;;;42.25;14.68;;;-0.70;99.90;;;;;;4975460;28;20129;-87
2022/12/09 02:15:46;;;;;;;41.35;15.23;;;-0.80;99.90;;;;;;4988125;28;20037;-87
2022/12/09 02:18:25;;;;;;;46.10;15.15;;;-0.80;99.90;;;;;;4980220;28;20137;-87
2022/12/09 02:21:00;;;;;;;43.10;14.75;;;-0.70;99.90;;;;;;4976682;28;20184;-87
2022/12/09 02:23:44;;;;;;;49.78;14.75;;;-0.70;99.90;;;;;;4974239;28;20045;-87
2022/12/09 02:26:23;;;;;;;48.42;14.95;;;-0.70;99.90;;;;;;4993196;28;20353;-87
2022/12/09 02:29:02;;;;;;;44.25;14.55;;;-0.70;99.90;;;;;;4990830;28;20089;-88
2022/12/09 02:31:47;;;;;;;42.90;14.20;;;-0.70;99.90;;;;;;4974284;28;20042;-87
2022/12/09 02:34:26;;;;;;;49.53;15.57;;;-0.50;99.90;;;;;;4970471;28;20080;-87
2022/12/09 02:37:01;;;;;;;45.42;15.35;;;-0.50;99.90;;;;;;4962991;28;20073;-87
2022/12/09 02:39:43;;;;;;;49.53;16.17;;;-0.50;99.90;;;;;;4977768;28;20957;-87
2022/12/09 02:42:13;;;;;;;44.80;15.27;;;-0.60;99.90;;;;;;4962391;28;20331;-87
2022/12/09 02:44:40;;;;;;;48.55;14.63;;;-0.60;99.90;;;;;;4976148;28;20050;-87
2022/12/09 02:47:08;;;;;;;48.25;15.65;;;-0.60;99.90;;;;;;4964287;28;20049;-87
2022/12/09 02:49:35;;;;;;;51.00;15.27;;;-0.60;99.90;;;;;;4976660;28;21410;-87
2022/12/09 02:52:03;;;;;;;43.00;15.05;;;-0.60;99.90;;;;;;4977075;28;20088;-86
2022/12/09 02:54:31;;;;;;;50.65;15.30;;;-0.60;99.90;;;;;;4993016;28;20527;-87
2022/12/09 02:57:02;;;;;;;46.13;14.40;;;-0.60;99.90;;;;;;4980448;28;20062;-87
2022/12/09 02:59:28;;;;;;;43.42;14.65;;;-0.70;99.90;;;;;;4976581;28;20534;-87
2022/12/09 03:02:16;;;;;;;45.60;15.23;;;-0.70;99.90;;;;;;4977373;28;20119;-87
2022/12/09 03:04:47;;;;;;;41.03;14.38;;;-0.70;99.90;;;;;;4995558;28;20045;-87
2022/12/09 03:07:18;;;;;;;50.17;14.15;;;-0.80;99.90;;;;;;4979499;28;20437;-87
2022/12/09 03:09:51;;;;;;;39.08;13.13;;;-0.80;99.90;;;;;;4958924;28;20409;-88
2022/12/09 03:12:23;;;;;;;45.40;14.02;;;-0.80;99.90;;;;;;4979408;28;20080;-87
2022/12/09 03:14:51;;;;;;;46.42;14.48;;;-0.80;99.90;;;;;;4964596;28;20216;-86
2022/12/09 03:17:22;;;;;;;45.08;13.65;;;-0.80;99.90;;;;;;4979585;28;20109;-87
2022/12/09 03:19:54;;;;;;;44.63;13.38;;;-0.90;99.90;;;;;;4975941;28;20052;-87
2022/12/09 03:22:23;;;;;;;42.03;14.20;;;-0.90;99.90;;;;;;4964622;28;20042;-85
2022/12/09 03:24:51;;;;;;;44.80;14.38;;;-0.90;99.90;;;;;;4997240;28;20041;-86
2022/12/09 03:27:24;;;;;;;44.28;13.48;;;-1.00;99.90;;;;;;4977636;28;20042;-86
2022/12/09 03:29:50;;;;;;;45.10;13.52;;;-1.10;99.90;;;;;;4979201;28;20041;-87
2022/12/09 03:32:20;;;;;;;37.90;13.73;;;-1.00;99.90;;;;;;4993518;28;20037;-86
2022/12/09 03:34:49;;;;;;;50.97;14.63;;;-1.10;99.90;;;;;;4974773;28;20525;-87
2022/12/09 03:37:18;;;;;;;42.80;14.65;;;-1.20;99.90;;;;;;4980468;28;20037;-87
2022/12/09 03:39:48;;;;;;;43.63;13.70;;;-1.30;99.90;;;;;;4995112;28;20037;-87
2022/12/09 03:42:20;;;;;;;36.55;12.82;;;-1.30;99.90;;;;;;4994646;28;20149;-87
2022/12/09 03:44:51;;;;;;;44.03;14.13;;;-1.30;99.90;;;;;;4991554;28;20543;-88
2022/12/09 03:47:17;;;;;;;43.92;14.77;;;-1.30;99.90;;;;;;4976436;28;20046;-87
2022/12/09 03:49:42;;;;;;;44.67;14.63;;;-1.40;99.90;;;;;;4977871;28;20089;-86
2022/12/09 03:52:39;;;;;;;43.83;15.07;;;-1.30;99.90;;;;;;4979373;28;20050;-88
2022/12/09 03:55:33;;;;;;;40.17;13.73;;;-1.40;99.90;;;;;;4964407;28;20442;-87
2022/12/09 03:58:02;;;;;;;42.20;13.65;;;-1.40;99.90;;;;;;4963824;28;20156;-87
2022/12/09 04:00:29;;;;;;;40.38;13.55;;;-1.40;99.90;;;;;;4973633;28;20449;-87
2022/12/09 04:02:55;;;;;;;40.88;13.77;;;-1.40;99.90;;;;;;4994020;28;20492;-87
2022/12/09 04:05:20;;;;;;;43.20;14.50;;;-1.50;99.90;;;;;;4977375;28;20040;-86
2022/12/09 04:07:46;;;;;;;40.70;13.90;;;-1.40;99.90;;;;;;4977597;28;20050;-87
2022/12/09 04:10:12;;;;;;;38.63;13.70;;;-1.40;99.90;;;;;;4974921;28;20042;-86
2022/12/09 04:12:38;;;;;;;38.42;12.93;;;-1.40;99.90;;;;;;4960339;28;20480;-87
2022/12/09 04:15:08;;;;;;;45.50;14.40;;;-1.50;99.90;;;;;;4973783;28;20762;-87
2022/12/09 04:17:34;;;;;;;33.95;14.00;;;-1.40;99.90;;;;;;4964462;28;20037;-86
2022/12/09 04:20:00;;;;;;;46.78;14.00;;;-1.40;99.90;;;;;;4978006;28;20111;-87
2022/12/09 04:22:32;;;;;;;42.70;14.65;;;-1.30;99.90;;;;;;4974116;28;20468;-87
2022/12/09 04:24:57;;;;;;;40.72;14.52;;;-1.30;99.90;;;;;;4963213;28;20556;-87
2022/12/09 04:27:23;;;;;;;41.65;14.27;;;-1.20;99.90;;;;;;4979993;28;20092;-87
2022/12/09 04:29:49;;;;;;;35.15;13.68;;;-1.20;99.90;;;;;;4971847;28;20327;-87
2022/12/09 04:32:14;;;;;;;39.45;14.45;;;-1.10;99.90;;;;;;4977856;28;20045;-87
2022/12/09 04:34:40;;;;;;;36.30;13.88;;;-1.20;99.90;;;;;;4976857;28;20056;-87
2022/12/09 04:37:06;;;;;;;40.13;14.63;;;-1.10;99.90;;;;;;4979146;28;20038;-87
2022/12/09 04:39:32;;;;;;;41.88;14.90;;;-1.10;99.90;;;;;;4975598;28;20086;-87
2022/12/09 04:41:57;;;;;;;40.88;14.48;;;-1.30;99.90;;;;;;4980556;28;20046;-87
2022/12/09 04:44:23;;;;;;;42.53;13.95;;;-1.20;99.90;;;;;;4974402;28;20046;-87
2022/12/09 04:46:49;;;;;;;42.30;14.25;;;-1.20;99.90;;;;;;4975839;28;20066;-86
2022/12/09 04:49:14;;;;;;;41.22;14.23;;;-1.20;99.90;;;;;;4977189;28;20047;-87
2022/12/09 04:51:40;;;;;;;41.33;14.82;;;-1.30;99.90;;;;;;4961800;28;20037;-87
2022/12/09 04:54:12;;;;;;;37.60;14.43;;;-1.30;99.90;;;;;;4972278;28;20497;-87
2022/12/09 04:56:38;;;;;;;40.40;14.40;;;-1.30;99.90;;;;;;4981131;28;20559;-86
2022/12/09 04:59:04;;;;;;;44.75;15.27;;;-1.40;99.90;;;;;;4989403;28;20091;-87
2022/12/09 05:01:31;;;;;;;41.70;14.77;;;-1.50;99.90;;;;;;4974239;28;20086;-87
2022/12/09 05:03:57;;;;;;;45.15;15.00;;;-1.50;99.90;;;;;;4980781;28;20328;-87
2022/12/09 05:06:23;;;;;;;40.75;14.52;;;-1.50;99.90;;;;;;4963366;28;20353;-87
2022/12/09 05:08:49;;;;;;;43.78;14.15;;;-1.50;99.90;;;;;;4989592;28;20464;-87
2022/12/09 05:11:16;;;;;;;41.28;13.70;;;-1.50;99.90;;;;;;4974717;28;20050;-87
2022/12/09 05:13:42;;;;;;;42.17;14.48;;;-1.60;99.90;;;;;;4975752;28;20064;-87
2022/12/09 05:16:10;;;;;;;39.00;14.15;;;-1.70;99.90;;;;;;4973708;28;20605;-88
2022/12/09 05:18:36;;;;;;;44.65;14.75;;;-1.70;99.90;;;;;;4989766;28;20482;-87
2022/12/09 05:21:10;;;;;;;37.72;13.98;;;-1.70;99.90;;;;;;4975269;28;20041;-87
2022/12/09 05:23:36;;;;;;;43.63;14.68;;;-1.70;99.90;;;;;;4974960;28;20067;-87
2022/12/09 05:26:07;;;;;;;40.47;13.48;;;-1.70;99.90;;;;;;4960694;28;20412;-87
2022/12/09 05:28:33;;;;;;;39.97;13.65;;;-1.70;99.90;;;;;;4972439;28;20046;-87
2022/12/09 05:31:04;;;;;;;43.60;14.38;;;-1.70;99.90;;;;;;4973895;28;20115;-87
2022/12/09 05:33:30;;;;;;;42.38;14.10;;;-1.90;99.90;;;;;;4964317;28;20103;-87
2022/12/09 05:35:56;;;;;;;39.70;13.70;;;-1.90;99.90;;;;;;4961465;28;20053;-87
2022/12/09 05:38:22;;;;;;;40.58;13.73;;;-1.90;99.90;;;;;;4976531;28;20073;-87
2022/12/09 05:40:48;;;;;;;40.17;13.63;;;-1.90;99.90;;;;;;4961210;28;20050;-87
2022/12/09 05:43:16;;;;;;;37.38;13.63;;;-2.00;99.90;;;;;;4976445;28;20050;-87
2022/12/09 05:45:42;;;;;;;39.20;13.13;;;-2.00;99.90;;;;;;4976954;28;20100;-87
2022/12/09 05:48:08;;;;;;;32.60;12.80;;;-2.10;99.90;;;;;;4959072;28;20192;-87
2022/12/09 05:50:34;;;;;;;34.80;12.73;;;-2.10;99.90;;;;;;4985511;28;20049;-86
2022/12/09 05:53:00;;;;;;;41.55;13.85;;;-2.00;99.90;;;;;;4987778;28;20049;-86
2022/12/09 05:55:26;;;;;;;44.42;14.85;;;-2.00;99.90;;;;;;4958933;28;20632;-86
2022/12/09 05:57:52;;;;;;;46.08;15.40;;;-2.20;99.90;;;;;;4956062;28;20042;-87
2022/12/09 06:00:21;;;;;;;42.20;14.27;;;-2.10;99.90;;;;;;4980934;28;20513;-86
2022/12/09 06:02:49;;;;;;;50.88;14.85;;;-2.20;99.90;;;;;;4965447;28;20702;-87
2022/12/09 06:05:15;;;;;;;40.75;15.23;;;-2.10;99.90;;;;;;4949806;28;20048;-87
2022/12/09 06:07:41;;;;;;;40.78;14.23;;;-2.20;99.90;;;;;;4966655;28;20405;-87
2022/12/09 06:10:07;;;;;;;42.97;14.65;;;-2.10;99.90;;;;;;4980780;28;20456;-86
2022/12/09 06:12:33;;;;;;;42.50;14.57;;;-2.20;99.90;;;;;;4967920;28;20042;-86
2022/12/09 06:14:58;;;;;;;44.38;16.05;;;-2.10;99.90;;;;;;4962624;28;20042;-87
2022/12/09 06:17:24;;;;;;;43.78;14.65;;;-2.20;99.90;;;;;;4989626;28;20174;-87
2022/12/09 06:19:50;;;;;;;47.40;16.77;;;-2.20;99.90;;;;;;4974359;28;20046;-87
2022/12/09 06:22:16;;;;;;;42.95;15.13;;;-2.30;99.90;;;;;;4977282;28;20617;-87
2022/12/09 06:24:42;;;;;;;44.03;15.32;;;-2.20;99.90;;;;;;4976198;28;20084;-86
2022/12/09 06:27:07;;;;;;;44.58;15.73;;;-2.20;99.90;;;;;;4977376;28;20046;-86
2022/12/09 06:29:33;;;;;;;41.20;15.85;;;-2.30;99.90;;;;;;4954851;28;20664;-86
2022/12/09 06:31:59;;;;;;;39.45;15.38;;;-2.30;99.90;;;;;;4974434;28;20120;-85
2022/12/09 06:34:24;;;;;;;40.38;15.13;;;-2.40;99.90;;;;;;4979307;28;20168;-86
2022/12/09 06:36:53;;;;;;;50.83;15.95;;;-2.30;99.90;;;;;;4976808;28;20033;-87
2022/12/09 06:39:19;;;;;;;45.85;15.15;;;-2.40;99.90;;;;;;4979079;28;20686;-86
2022/12/09 06:41:44;;;;;;;43.00;15.88;;;-2.40;99.90;;;;;;4977739;28;20042;-86
2022/12/09 06:44:11;;;;;;;48.33;17.15;;;-2.30;99.90;;;;;;4977146;28;20042;-86
2022/12/09 06:46:39;;;;;;;42.70;16.20;;;-2.20;99.90;;;;;;4972537;28;20382;-87
2022/12/09 06:49:08;;;;;;;45.42;16.65;;;-2.20;99.90;;;;;;4979330;28;20124;-86
2022/12/09 06:51:34;;;;;;;49.35;17.65;;;-2.10;99.90;;;;;;4974571;28;20381;-87
2022/12/09 06:54:00;;;;;;;52.25;18.58;;;-2.20;99.90;;;;;;4961333;28;20488;-87
2022/12/09 06:56:26;;;;;;;50.80;18.98;;;-2.20;99.90;;;;;;4980995;28;20075;-87
2022/12/09 06:58:52;;;;;;;50.25;18.02;;;-2.00;99.90;;;;;;4964777;28;20145;-87
2022/12/09 07:01:21;;;;;;;55.67;17.50;;;-2.10;99.90;;;;;;4984072;28;20053;-87
2022/12/09 07:03:50;;;;;;;52.00;17.67;;;-2.20;99.90;;;;;;4993751;28;20076;-87
2022/12/09 07:06:29;;;;;;;45.17;17.42;;;-2.20;99.90;;;;;;4980236;28;20450;-86
2022/12/09 07:08:57;;;;;;;51.22;18.10;;;-2.10;99.90;;;;;;4962781;28;20559;-87
2022/12/09 07:11:23;;;;;;;53.85;18.33;;;-2.20;99.90;;;;;;4993048;28;20501;-87
2022/12/09 07:13:50;;;;;;;45.33;17.77;;;-2.10;99.90;;;;;;4966836;28;20101;-87
2022/12/09 07:16:16;;;;;;;53.90;20.25;;;-2.20;99.90;;;;;;4963808;28;20146;-87
2022/12/09 07:18:44;;;;;;;52.30;18.38;;;-2.20;99.90;;;;;;4986489;28;20173;-87
2022/12/09 07:21:16;;;;;;;54.58;18.92;;;-2.10;99.90;;;;;;4978928;28;20469;-87
2022/12/09 07:23:48;;;;;;;51.00;18.60;;;-2.00;99.90;;;;;;4978708;28;20137;-87
2022/12/09 07:26:15;;;;;;;53.45;18.17;;;-2.00;99.90;;;;;;4980000;28;20042;-87
2022/12/09 07:28:42;;;;;;;55.15;18.80;;;-1.90;99.90;;;;;;4982331;28;20046;-87
2022/12/09 07:31:27;;;;;;;58.05;18.58;;;-2.00;99.90;;;;;;4998273;28;20458;-87
2022/12/09 07:33:55;;;;;;;54.08;17.75;;;-2.00;99.90;;;;;;4997355;28;20203;-87
2022/12/09 07:36:23;;;;;;;49.03;18.23;;;-2.00;99.90;;;;;;4981081;28;20508;-86
2022/12/09 07:38:56;;;;;;;57.97;19.23;;;-1.90;99.90;;;;;;4980957;28;20076;-87
2022/12/09 07:41:26;;;;;;;57.75;19.67;;;-2.00;99.90;;;;;;4996045;28;20053;-86
2022/12/09 07:43:52;;;;;;;58.85;19.95;;;-2.00;99.90;;;;;;4981063;28;20128;-87
2022/12/09 07:46:22;;;;;;;61.35;22.70;;;-2.00;99.90;;;;;;4963429;28;20113;-87
2022/12/09 07:48:48;;;;;;;61.55;22.38;;;-1.90;99.90;;;;;;4985519;28;20471;-87
2022/12/09 07:51:17;;;;;;;61.38;21.05;;;-2.00;99.90;;;;;;4979252;28;20034;-87
2022/12/09 07:53:43;;;;;;;56.63;18.83;;;-1.80;99.90;;;;;;4994896;28;20046;-87
2022/12/09 07:56:13;;;;;;;51.83;18.48;;;-1.80;99.90;;;;;;4964314;28;20045;-87
2022/12/09 07:58:40;;;;;;;49.08;17.73;;;-1.90;99.90;;;;;;4977518;28;20052;-86
2022/12/09 08:01:14;;;;;;;51.85;17.50;;;-1.80;99.90;;;;;;4977715;28;20064;-87
2022/12/09 08:03:40;;;;;;;55.58;18.65;;;-1.70;99.90;;;;;;4965216;28;20049;-87
2022/12/09 08:06:07;;;;;;;53.85;17.85;;;-1.70;99.90;;;;;;4977013;28;20057;-87
2022/12/09 08:08:33;;;;;;;52.45;19.10;;;-1.70;99.90;;;;;;4971940;28;20078;-87
2022/12/09 08:11:10;;;;;;;56.58;19.08;;;-1.70;99.90;;;;;;4993775;28;20123;-87
2022/12/09 08:13:36;;;;;;;54.88;17.70;;;-1.60;99.90;;;;;;4997104;28;20170;-86
2022/12/09 08:16:08;;;;;;;56.85;20.73;;;-1.60;99.90;;;;;;4965816;28;20493;-87
2022/12/09 08:18:35;;;;;;;54.75;19.40;;;-1.50;99.90;;;;;;4978608;28;20050;-86
2022/12/09 08:21:07;;;;;;;57.28;20.38;;;-1.40;99.90;;;;;;4980430;28;20073;-87
2022/12/09 08:23:35;;;;;;;55.63;20.05;;;-1.50;99.90;;;;;;4996666;28;20073;-87
2022/12/09 08:26:02;;;;;;;67.15;21.95;;;-1.50;99.90;;;;;;4995909;28;20041;-87
2022/12/09 08:28:28;;;;;;;64.75;21.98;;;-1.40;99.90;;;;;;4964297;28;20054;-87
2022/12/09 08:30:55;;;;;;;61.55;21.23;;;-1.40;99.90;;;;;;4967775;28;20369;-87
2022/12/09 08:33:20;;;;;;;58.83;18.55;;;-1.40;99.90;;;;;;4967892;28;20552;-87
2022/12/09 08:35:49;;;;;;;64.28;20.73;;;-1.20;99.90;;;;;;4966472;28;20219;-87
2022/12/09 08:38:15;;;;;;;56.50;20.08;;;-1.20;99.90;;;;;;4974303;28;20046;-87
2022/12/09 08:40:43;;;;;;;68.22;22.67;;;-1.20;99.90;;;;;;4976119;28;20151;-87
2022/12/09 08:43:12;;;;;;;64.30;21.38;;;-1.20;99.90;;;;;;4963569;28;20682;-87
2022/12/09 08:45:39;;;;;;;65.95;21.42;;;-0.90;99.90;;;;;;4977158;28;20046;-87
2022/12/09 08:48:06;;;;;;;68.88;21.30;;;-0.90;99.90;;;;;;4963322;28;20078;-87
2022/12/09 08:50:36;;;;;;;70.18;21.73;;;-0.80;99.90;;;;;;4975164;28;20034;-87
2022/12/09 08:53:02;;;;;;;81.47;25.00;;;-0.70;99.90;;;;;;4977673;28;20124;-87
2022/12/09 08:55:38;;;;;;;90.20;28.02;;;-0.50;99.90;;;;;;4979574;28;20289;-87
2022/12/09 08:58:05;;;;;;;100.32;26.00;;;-0.50;99.90;;;;;;4997045;28;20046;-87
2022/12/09 09:00:35;;;;;;;101.80;26.50;;;-0.30;99.90;;;;;;4994662;28;20161;-86
2022/12/09 09:03:04;;;;;;;103.75;27.75;;;-0.20;99.90;;;;;;4979219;28;20481;-87
2022/12/09 09:05:41;;;;;;;126.88;28.23;;;-0.10;99.90;;;;;;4967966;28;20040;-88
2022/12/09 09:08:13;;;;;;;121.38;29.77;;;0.00;99.90;;;;;;4998383;28;20053;-87
2022/12/09 09:10:39;;;;;;;141.43;29.75;;;0.00;99.90;;;;;;4984358;28;20046;-87
2022/12/09 09:13:04;;;;;;;148.18;29.17;;;0.10;99.90;;;;;;4976146;28;20037;-88
2022/12/09 09:15:33;;;;;;;124.78;28.20;;;0.10;99.90;;;;;;4965051;28;20095;-87
2022/12/09 09:17:59;;;;;;;139.77;29.38;;;0.10;99.90;;;;;;4982557;28;20153;-87
2022/12/09 09:20:25;;;;;;;130.80;28.55;;;0.20;99.90;;;;;;4963386;28;20552;-87
2022/12/09 09:22:50;;;;;;;136.48;28.05;;;0.30;99.90;;;;;;4979931;28;20049;-88
2022/12/09 09:25:16;;;;;;;147.02;29.45;;;0.30;99.90;;;;;;4964317;28;20046;-87
2022/12/09 09:27:42;;;;;;;166.85;28.58;;;0.40;99.90;;;;;;4981182;28;20132;-87
2022/12/09 09:30:08;;;;;;;137.25;27.70;;;0.30;99.90;;;;;;4982681;28;20269;-87
2022/12/09 09:32:37;;;;;;;133.25;26.00;;;0.30;99.90;;;;;;4962611;28;20565;-88
2022/12/09 09:35:03;;;;;;;159.05;28.27;;;0.40;99.90;;;;;;4986514;28;20044;-87
2022/12/09 09:37:30;;;;;;;131.10;27.42;;;0.40;99.90;;;;;;4963831;28;20197;-87
2022/12/09 09:39:56;;;;;;;177.18;28.50;;;0.50;99.90;;;;;;4980542;28;20124;-87
2022/12/09 09:42:29;;;;;;;166.18;28.67;;;0.80;99.90;;;;;;4965787;28;20643;-87
2022/12/09 09:44:57;;;;;;;210.13;28.40;;;0.80;99.90;;;;;;4974215;28;20057;-87
2022/12/09 09:47:32;;;;;;;168.35;28.75;;;0.90;99.90;;;;;;4981397;28;20042;-87
2022/12/09 09:50:20;;;;;;;127.20;25.83;;;0.90;99.90;;;;;;4978626;28;20544;-88
2022/12/09 09:52:51;;;;;;;213.35;27.60;;;0.90;99.90;;;;;;4981534;28;20137;-87
2022/12/09 09:55:21;;;;;;;119.65;24.73;;;1.00;99.90;;;;;;4998216;28;20056;-87
2022/12/09 09:58:05;;;;;;;153.00;27.02;;;1.00;99.90;;;;;;4980262;28;20038;-88
2022/12/09 10:01:04;;;;;;;99.93;24.15;;;1.00;99.90;;;;;;4998545;28;20045;-87
2022/12/09 10:03:53;;;;;;;91.05;23.30;;;0.90;99.90;;;;;;4965935;28;20034;-89
2022/12/09 10:06:19;;;;;;;128.55;23.63;;;0.80;99.90;;;;;;5003063;28;20173;-87
2022/12/09 10:08:49;;;;;;;81.95;21.10;;;0.90;99.90;;;;;;4984508;28;20046;-87
2022/12/09 10:11:39;;;;;;;105.68;23.48;;;0.90;99.90;;;;;;4995222;28;20525;-88
2022/12/09 10:14:24;;;;;;;95.63;22.60;;;0.90;99.90;;;;;;4997694;28;20512;-87
2022/12/09 10:17:17;;;;;;;97.55;22.27;;;0.90;99.90;;;;;;4980760;28;20045;-87
2022/12/09 10:19:50;;;;;;;106.07;22.52;;;0.80;99.90;;;;;;4979360;28;20572;-88
2022/12/09 10:22:21;;;;;;;109.32;22.08;;;0.80;99.90;;;;;;4998494;28;20389;-88
2022/12/09 10:25:23;;;;;;;109.68;22.38;;;0.80;99.90;;;;;;4982370;28;20105;-88
2022/12/09 10:28:10;;;;;;;118.97;22.85;;;0.90;99.90;;;;;;4979718;28;20469;-88
2022/12/09 10:30:36;;;;;;;116.57;22.33;;;0.80;99.90;;;;;;4985927;28;20184;-89
2022/12/09 10:33:03;;;;;;;120.90;22.05;;;0.80;99.90;;;;;;4966605;28;20448;-89
2022/12/09 10:35:29;;;;;;;178.25;22.92;;;0.80;99.90;;;;;;4969176;28;20069;-89
2022/12/09 10:38:08;;;;;;;125.95;20.95;;;0.80;99.90;;;;;;4982576;28;20045;-89
2022/12/09 10:43:33;;;;;;;119.38;22.05;;;0.70;99.90;;;;;;4996791;28;20144;-89
2022/12/09 10:44:20;;;;;;;173.65;22.48;;;0.70;99.90;;;;;;4972877;28;20490;-89
2022/12/09 10:46:46;;;;;;;121.20;20.25;;;0.80;99.90;;;;;;4982857;28;20093;-90
2022/12/09 10:49:20;;;;;;;129.45;21.60;;;0.80;99.90;;;;;;4984677;28;20331;-90
2022/12/09 10:51:49;;;;;;;217.30;23.90;;;0.80;99.90;;;;;;4990364;28;20424;-90
2022/12/09 10:54:18;;;;;;;190.00;27.58;;;0.80;99.90;;;;;;4967212;28;20038;-90
2022/12/09 10:57:00;;;;;;;121.95;24.58;;;0.80;99.90;;;;;;4985261;28;20234;-90
2022/12/09 10:59:31;;;;;;;156.80;25.65;;;0.80;99.90;;;;;;4985328;28;20492;-89
2022/12/09 11:01:58;;;;;;;219.32;27.52;;;0.90;99.90;;;;;;4964121;28;20053;-91
2022/12/09 11:04:35;;;;;;;164.70;23.65;;;0.90;99.90;;;;;;4979658;28;20125;-90
2022/12/09 11:07:16;;;;;;;166.18;26.02;;;1.00;99.90;;;;;;4966469;28;20042;-90
2022/12/09 11:09:48;;;;;;;191.02;25.85;;;1.10;99.90;;;;;;4979383;28;20149;-91
2022/12/09 11:12:26;;;;;;;145.20;24.20;;;1.10;99.90;;;;;;4969388;28;20038;-90
2022/12/09 11:15:24;;;;;;;108.03;23.52;;;1.20;99.90;;;;;;4984495;28;20634;-91
2022/12/09 11:18:06;;;;;;;240.13;28.42;;;1.20;99.90;;;;;;4962056;28;20042;-90
2022/12/09 11:20:33;;;;;;;350.70;34.90;;;1.20;99.90;;;;;;4999823;28;20037;-90
2022/12/09 11:23:17;;;;;;;223.00;27.98;;;1.20;99.90;;;;;;4983819;28;20125;-90
2022/12/09 11:25:55;;;;;;;313.17;29.98;;;1.20;99.90;;;;;;4987258;28;20393;-89
2022/12/09 11:28:29;;;;;;;233.10;29.17;;;1.20;99.90;;;;;;4982755;28;20050;-91
2022/12/09 11:30:59;;;;;;;258.20;30.42;;;1.30;99.90;;;;;;4968688;28;20544;-90
2022/12/09 11:33:36;;;;;;;96.25;22.83;;;1.20;99.90;;;;;;4986188;28;20034;-89
2022/12/09 11:36:21;;;;;;;175.20;26.10;;;1.20;99.90;;;;;;5001329;28;20046;-89
2022/12/09 11:38:50;;;;;;;152.95;25.80;;;1.40;99.90;;;;;;4983844;28;20091;-91
2022/12/09 11:44:32;;;;;;;125.85;22.92;;;1.40;99.90;;;;;;4980269;28;20057;-89
2022/12/09 11:47:12;;;;;;;148.98;24.15;;;1.30;99.90;;;;;;4981019;28;20074;-90
2022/12/09 11:49:59;;;;;;;184.05;26.75;;;1.30;99.90;;;;;;4984225;28;20180;-90
2022/12/09 11:52:29;;;;;;;112.97;23.15;;;1.40;99.90;;;;;;4998382;28;20054;-88
2022/12/09 11:55:04;;;;;;;113.13;23.73;;;1.40;99.90;;;;;;4984689;28;20037;-89
2022/12/09 11:57:37;;;;;;;85.63;22.42;;;1.40;99.90;;;;;;4984188;28;20073;-89
2022/12/09 12:00:17;;;;;;;74.63;23.15;;;1.30;99.90;;;;;;4999976;28;20129;-88
2022/12/09 12:03:20;;;;;;;75.05;22.20;;;1.20;99.90;;;;;;4985025;28;20065;-88
2022/12/09 12:05:52;;;;;;;86.15;21.83;;;1.10;99.90;;;;;;4984443;28;20056;-89
2022/12/09 12:08:42;;;;;;;82.70;22.80;;;1.10;99.90;;;;;;4980432;28;20057;-89
2022/12/09 12:11:16;;;;;;;96.40;23.58;;;1.20;99.90;;;;;;4986232;28;20137;-89
2022/12/09 12:13:52;;;;;;;83.72;24.05;;;1.10;99.90;;;;;;4978380;28;20440;-88
2022/12/09 12:16:51;;;;;;;83.45;22.90;;;1.10;99.90;;;;;;4983286;28;20433;-88
2022/12/09 12:19:29;;;;;;;88.88;23.48;;;1.10;99.90;;;;;;4965913;28;20052;-89
2022/12/09 12:22:19;;;;;;;135.80;24.52;;;1.20;99.90;;;;;;4985298;28;20045;-88
2022/12/09 12:24:51;;;;;;;109.57;24.45;;;1.30;99.90;;;;;;4980002;28;20042;-89
2022/12/09 12:27:38;;;;;;;145.70;28.50;;;1.30;99.90;;;;;;4977973;28;20038;-88
2022/12/09 12:30:13;;;;;;;152.65;27.90;;;1.30;99.90;;;;;;4985444;28;20081;-87
2022/12/09 12:33:01;;;;;;;125.22;26.25;;;1.40;99.90;;;;;;4990169;28;20038;-88
2022/12/09 12:35:46;;;;;;;110.65;25.60;;;1.40;99.90;;;;;;4997825;28;20175;-89
2022/12/09 12:38:28;;;;;;;80.25;24.67;;;1.40;99.90;;;;;;4983386;28;20069;-87
2022/12/09 12:41:02;;;;;;;64.13;21.33;;;1.40;99.90;;;;;;5000277;28;20042;-87
2022/12/09 12:46:49;;;;;;;69.10;23.05;;;1.30;99.90;;;;;;4980319;28;20050;-88
2022/12/09 12:49:33;;;;;;;77.07;24.25;;;1.40;99.90;;;;;;4985116;28;20137;-88
2022/12/09 12:52:32;;;;;;;60.50;22.75;;;1.50;99.90;;;;;;4978492;28;20128;-88
2022/12/09 12:55:37;;;;;;;61.90;21.13;;;1.50;99.90;;;;;;4994327;28;20048;-88